Time;durP1;ratioP1;P1;durP2;ratioP2;P2;SDS_P1;SDS_P2;PMS_P1;PMS_P2;Temp;Humidity;BMP_temperature;BMP_pressure;BME280_temperature;BME280_humidity;BME280_pressure;Samples;Min_cycle;Max_cycle;Signal;HPM_P1;HPM_P2
2022/02/01 00:01:25;;;;;;;13.73;10.07;;;;;;;;;;10373485;28;20030;-66
2022/02/01 00:43:10;;;;;;;13.73;7.53;;;;;;;;;;10373399;28;20021;-66
2022/02/01 00:48:11;;;;;;;13.55;7.95;;;;;;;;;;10372616;28;21105;-66
2022/02/01 00:53:11;;;;;;;8.98;6.75;;;;;;;;;;10372441;28;20311;-65
2022/02/01 00:58:11;;;;;;;12.93;7.10;;;;;;;;;;10372221;28;20036;-63
2022/02/01 01:03:12;;;;;;;13.47;6.77;;;;;;;;;;10368317;28;20990;-64
2022/02/01 01:08:12;;;;;;;9.87;6.50;;;;;;;;;;10372001;28;20447;-65
2022/02/01 01:44:45;;;;;;;8.80;5.55;;;;;;;;;;10371091;28;20038;-63
2022/02/01 01:55:13;;;;;;;8.90;5.40;;;;;;;;;;10370272;28;20034;-66
2022/02/01 02:00:31;;;;;;;8.57;5.27;;;;;;;;;;10370381;28;20097;-63
2022/02/01 02:05:32;;;;;;;8.07;5.03;;;;;;;;;;10369433;28;20026;-63
2022/02/01 02:10:38;;;;;;;7.85;4.97;;;;;;;;;;10369605;28;20033;-65
2022/02/01 02:15:47;;;;;;;7.18;4.85;;;;;;;;;;10368412;28;20096;-66
2022/02/01 02:20:48;;;;;;;5.78;4.65;;;;;;;;;;10369191;28;20103;-65
2022/02/01 02:25:50;;;;;;;4.75;4.03;;;;;;;;;;10369508;28;20073;-65
2022/02/01 02:30:51;;;;;;;5.43;4.47;;;;;;;;;;10368773;28;20394;-66
2022/02/01 02:36:11;;;;;;;6.38;4.20;;;;;;;;;;10365635;28;20262;-65
2022/02/01 02:46:25;;;;;;;6.43;4.75;;;;;;;;;;10368421;28;20070;-65
2022/02/01 02:51:26;;;;;;;4.85;4.18;;;;;;;;;;10368110;28;20390;-66
2022/02/01 02:56:27;;;;;;;6.10;4.15;;;;;;;;;;10368549;28;20125;-65
2022/02/01 03:01:27;;;;;;;5.87;4.20;;;;;;;;;;10367904;28;20121;-66
2022/02/01 03:06:28;;;;;;;4.22;3.72;;;;;;;;;;10367633;28;21048;-65
2022/02/01 03:11:28;;;;;;;4.83;3.53;;;;;;;;;;10367616;28;20034;-65
2022/02/01 03:21:55;;;;;;;7.40;3.72;;;;;;;;;;10366104;28;20052;-65
2022/02/01 03:26:55;;;;;;;5.60;3.85;;;;;;;;;;10370420;28;20036;-65
2022/02/01 03:31:56;;;;;;;5.10;4.25;;;;;;;;;;10375513;28;20050;-65
2022/02/01 03:36:56;;;;;;;5.17;4.20;;;;;;;;;;10375471;28;20451;-65
2022/02/01 03:41:57;;;;;;;6.03;4.00;;;;;;;;;;10374753;28;20447;-66
2022/02/01 03:47:03;;;;;;;6.53;4.20;;;;;;;;;;10375179;28;20045;-66
2022/02/01 03:52:05;;;;;;;6.00;4.63;;;;;;;;;;10374692;28;20470;-66
2022/02/01 03:57:07;;;;;;;5.70;4.18;;;;;;;;;;10374407;28;20351;-64
2022/02/01 04:02:08;;;;;;;7.30;4.40;;;;;;;;;;10374011;28;20048;-64
2022/02/01 04:07:09;;;;;;;7.67;4.53;;;;;;;;;;10374782;28;20037;-64
2022/02/01 04:12:09;;;;;;;5.18;4.45;;;;;;;;;;10374106;28;20451;-64
2022/02/01 04:17:11;;;;;;;6.40;4.60;;;;;;;;;;10373732;28;20116;-64
2022/02/01 04:22:11;;;;;;;6.38;4.18;;;;;;;;;;10374057;28;20052;-64
2022/02/01 04:27:27;;;;;;;6.28;4.32;;;;;;;;;;10373493;28;20040;-63
2022/02/01 04:32:27;;;;;;;8.73;4.68;;;;;;;;;;10373160;28;20026;-65
2022/02/01 04:37:28;;;;;;;5.77;4.77;;;;;;;;;;10372631;28;20026;-65
2022/02/01 04:42:33;;;;;;;6.18;4.60;;;;;;;;;;10372871;28;20781;-65
2022/02/01 04:47:35;;;;;;;5.57;4.28;;;;;;;;;;10373279;28;20049;-63
2022/02/01 04:52:35;;;;;;;6.63;4.75;;;;;;;;;;10372970;28;20034;-63
2022/02/01 04:57:41;;;;;;;8.18;4.80;;;;;;;;;;10372345;28;20084;-63
2022/02/01 05:02:41;;;;;;;6.13;4.70;;;;;;;;;;10371906;28;20501;-64
2022/02/01 05:07:41;;;;;;;6.93;5.07;;;;;;;;;;10369000;28;20120;-64
2022/02/01 05:12:42;;;;;;;5.23;4.50;;;;;;;;;;10371936;28;21010;-65
2022/02/01 05:17:51;;;;;;;7.77;5.40;;;;;;;;;;10372104;28;20463;-65
2022/02/01 05:22:53;;;;;;;8.43;5.22;;;;;;;;;;10371372;28;20517;-65
2022/02/01 05:27:57;;;;;;;6.53;4.88;;;;;;;;;;10371722;28;20026;-65
2022/02/01 05:32:57;;;;;;;7.60;4.80;;;;;;;;;;10371544;28;20068;-65
2022/02/01 05:37:58;;;;;;;7.73;5.17;;;;;;;;;;10370642;28;20109;-66
2022/02/01 05:43:02;;;;;;;7.20;4.97;;;;;;;;;;10370658;28;20451;-65
2022/02/01 05:48:03;;;;;;;6.38;4.90;;;;;;;;;;10370326;28;20385;-65
2022/02/01 05:53:03;;;;;;;9.18;5.30;;;;;;;;;;10369135;28;20485;-64
2022/02/01 05:58:04;;;;;;;8.67;6.07;;;;;;;;;;10368962;28;20034;-66
2022/02/01 06:03:04;;;;;;;7.72;5.90;;;;;;;;;;10370210;28;20455;-66
2022/02/01 06:08:05;;;;;;;7.43;5.63;;;;;;;;;;10369494;28;20096;-66
2022/02/01 06:13:05;;;;;;;9.57;5.80;;;;;;;;;;10368803;28;20058;-67
2022/02/01 06:18:06;;;;;;;9.63;6.20;;;;;;;;;;10368909;28;20030;-67
2022/02/01 06:23:17;;;;;;;6.68;5.45;;;;;;;;;;10369137;28;20033;-67
2022/02/01 06:28:19;;;;;;;7.47;5.18;;;;;;;;;;10369621;28;20029;-67
2022/02/01 06:33:20;;;;;;;7.10;5.07;;;;;;;;;;10365639;28;20083;-64
2022/02/01 06:38:21;;;;;;;11.90;5.82;;;;;;;;;;10368276;28;20026;-66
2022/02/01 06:43:21;;;;;;;12.83;5.63;;;;;;;;;;10368605;28;20029;-67
2022/02/01 06:48:22;;;;;;;9.43;5.60;;;;;;;;;;10366911;28;20446;-67
2022/02/01 06:53:23;;;;;;;14.60;5.93;;;;;;;;;;10368086;28;20032;-67
2022/02/01 06:58:23;;;;;;;8.35;5.93;;;;;;;;;;10368233;28;20479;-67
2022/02/01 07:03:24;;;;;;;11.27;6.43;;;;;;;;;;10367504;28;20032;-68
2022/02/01 07:08:24;;;;;;;8.77;6.07;;;;;;;;;;10367794;28;20383;-65
2022/02/01 07:13:25;;;;;;;14.05;6.28;;;;;;;;;;10367451;28;20498;-66
2022/02/01 07:18:25;;;;;;;30.15;6.85;;;;;;;;;;10367590;28;20056;-69
2022/02/01 07:23:27;;;;;;;12.93;6.70;;;;;;;;;;10366964;28;20037;-69
2022/02/01 07:28:29;;;;;;;14.80;6.43;;;;;;;;;;10368071;28;20026;-69
2022/02/01 07:33:29;;;;;;;15.90;7.03;;;;;;;;;;10365109;28;20390;-69
2022/02/01 07:38:30;;;;;;;15.35;6.68;;;;;;;;;;10366498;28;20034;-69
2022/02/01 07:43:31;;;;;;;13.75;6.90;;;;;;;;;;10366578;28;20029;-67
2022/02/01 07:48:32;;;;;;;15.73;7.70;;;;;;;;;;10366911;28;20433;-67
2022/02/01 07:53:32;;;;;;;10.75;7.00;;;;;;;;;;10364959;28;20461;-68
2022/02/01 07:58:33;;;;;;;13.35;7.63;;;;;;;;;;10366220;28;20037;-67
2022/02/01 08:03:33;;;;;;;16.25;6.75;;;;;;;;;;10365240;28;20030;-67
2022/02/01 08:08:36;;;;;;;15.77;7.53;;;;;;;;;;10365935;28;20100;-68
2022/02/01 08:19:26;;;;;;;17.95;7.40;;;;;;;;;;10367746;28;20152;-67
2022/02/01 08:24:26;;;;;;;11.32;7.50;;;;;;;;;;10367526;28;20033;-68
2022/02/01 08:29:27;;;;;;;12.57;8.13;;;;;;;;;;10367551;28;20061;-67
2022/02/01 08:34:27;;;;;;;11.77;7.75;;;;;;;;;;10350841;28;20555;-68
2022/02/01 08:39:28;;;;;;;17.17;8.00;;;;;;;;;;10366178;28;20177;-67
2022/02/01 08:44:29;;;;;;;11.80;7.97;;;;;;;;;;10366076;28;20038;-67
2022/02/01 08:49:31;;;;;;;12.43;8.55;;;;;;;;;;10369556;28;20460;-67
2022/02/01 08:54:33;;;;;;;15.55;8.20;;;;;;;;;;10372116;28;20033;-68
2022/02/01 08:59:33;;;;;;;15.32;8.30;;;;;;;;;;10372340;28;20154;-65
2022/02/01 09:04:34;;;;;;;12.73;7.80;;;;;;;;;;10371571;28;20188;-66
2022/02/01 09:09:38;;;;;;;14.27;9.13;;;;;;;;;;10371570;28;20034;-66
2022/02/01 09:14:38;;;;;;;13.70;8.93;;;;;;;;;;10371465;28;20038;-66
2022/02/01 09:19:41;;;;;;;16.45;9.27;;;;;;;;;;10371312;28;20033;-66
2022/02/01 09:24:42;;;;;;;15.50;8.77;;;;;;;;;;10370824;28;20029;-67
2022/02/01 09:29:51;;;;;;;14.27;8.48;;;;;;;;;;10369460;28;20057;-67
2022/02/01 09:34:51;;;;;;;12.90;8.60;;;;;;;;;;10366026;28;20030;-67
2022/02/01 09:39:52;;;;;;;13.93;8.73;;;;;;;;;;10370668;28;20030;-66
2022/02/01 09:44:53;;;;;;;17.85;8.95;;;;;;;;;;10370394;28;20305;-67
2022/02/01 09:49:53;;;;;;;16.08;8.68;;;;;;;;;;10368983;28;20026;-66
2022/02/01 09:54:54;;;;;;;19.10;9.20;;;;;;;;;;10370238;28;20034;-67
2022/02/01 09:59:57;;;;;;;15.95;9.93;;;;;;;;;;10368981;28;20836;-66
2022/02/01 10:05:01;;;;;;;16.48;9.45;;;;;;;;;;10369486;28;20096;-67
2022/02/01 10:10:04;;;;;;;17.88;8.55;;;;;;;;;;10369577;28;20385;-67
2022/02/01 10:15:15;;;;;;;13.60;8.77;;;;;;;;;;10369415;28;20133;-67
2022/02/01 10:20:16;;;;;;;12.77;8.90;;;;;;;;;;10369373;28;20133;-67
2022/02/01 10:25:26;;;;;;;14.88;8.88;;;;;;;;;;10370031;28;20026;-67
2022/02/01 10:30:35;;;;;;;12.65;8.10;;;;;;;;;;10370040;28;20107;-67
2022/02/01 10:35:55;;;;;;;15.63;9.25;;;;;;;;;;10368038;28;20029;-67
2022/02/01 10:40:56;;;;;;;11.85;9.05;;;;;;;;;;10369179;28;20080;-67
2022/02/01 10:46:15;;;;;;;12.68;8.52;;;;;;;;;;10366106;28;20088;-67
2022/02/01 10:51:20;;;;;;;17.00;9.68;;;;;;;;;;10366920;28;20386;-67
2022/02/01 10:56:22;;;;;;;13.88;8.65;;;;;;;;;;10368037;28;20058;-67
2022/02/01 11:01:25;;;;;;;13.38;9.45;;;;;;;;;;10367539;28;20228;-67
2022/02/01 11:06:25;;;;;;;13.38;8.80;;;;;;;;;;10367607;28;20041;-67
2022/02/01 11:11:26;;;;;;;14.50;8.70;;;;;;;;;;10349586;28;20037;-67
2022/02/01 11:16:27;;;;;;;14.53;9.07;;;;;;;;;;10365834;28;20375;-67
2022/02/01 11:21:28;;;;;;;13.20;9.00;;;;;;;;;;10365167;28;20811;-67
2022/02/01 11:26:50;;;;;;;14.38;8.93;;;;;;;;;;10366780;28;20033;-67
2022/02/01 11:31:50;;;;;;;14.48;9.00;;;;;;;;;;10368879;28;20022;-67
2022/02/01 11:37:04;;;;;;;13.98;8.80;;;;;;;;;;10368364;28;20398;-67
2022/02/01 11:42:14;;;;;;;11.90;8.68;;;;;;;;;;10367665;28;20022;-67
2022/02/01 11:47:17;;;;;;;12.50;8.38;;;;;;;;;;10369319;28;20498;-67
2022/02/01 11:52:18;;;;;;;12.95;8.50;;;;;;;;;;10373791;28;20025;-67
2022/02/01 11:57:25;;;;;;;15.20;9.25;;;;;;;;;;10373712;28;20025;-67
2022/02/01 12:02:37;;;;;;;12.15;8.20;;;;;;;;;;10373613;28;20021;-67
2022/02/01 12:08:13;;;;;;;13.65;9.07;;;;;;;;;;10373944;28;20037;-67
2022/02/01 12:13:18;;;;;;;12.32;8.43;;;;;;;;;;10365405;28;20042;-67
2022/02/01 12:18:40;;;;;;;14.02;8.73;;;;;;;;;;10371883;28;20026;-67
2022/02/01 12:23:45;;;;;;;11.57;8.00;;;;;;;;;;10373388;28;20446;-67
2022/02/01 12:28:46;;;;;;;12.38;8.18;;;;;;;;;;10368162;28;20065;-67
2022/02/01 12:33:50;;;;;;;14.60;9.00;;;;;;;;;;10369905;28;20481;-67
2022/02/01 12:38:58;;;;;;;13.30;8.60;;;;;;;;;;10369239;28;20033;-67
2022/02/01 12:48:59;;;;;;;11.15;8.10;;;;;;;;;;10372460;28;20138;-67
2022/02/01 12:54:00;;;;;;;17.60;8.13;;;;;;;;;;10372375;28;20030;-67
2022/02/01 12:59:01;;;;;;;13.27;9.07;;;;;;;;;;10372382;28;20970;-67
2022/02/01 13:04:03;;;;;;;10.98;7.75;;;;;;;;;;10371628;28;20038;-67
2022/02/01 13:25:04;;;;;;;12.75;8.50;;;;;;;;;;10370661;28;20474;-66
2022/02/01 13:30:07;;;;;;;11.52;7.55;;;;;;;;;;10370825;28;20042;-67
2022/02/01 13:35:10;;;;;;;13.90;8.07;;;;;;;;;;10369984;28;20075;-67
2022/02/01 13:40:30;;;;;;;11.98;7.22;;;;;;;;;;10370087;28;20618;-67
2022/02/01 13:45:35;;;;;;;12.15;6.63;;;;;;;;;;10369891;28;20401;-67
2022/02/01 13:50:36;;;;;;;13.27;7.30;;;;;;;;;;10370595;28;20076;-67
2022/02/01 13:55:40;;;;;;;11.90;7.40;;;;;;;;;;10369644;28;20022;-67
2022/02/01 14:00:43;;;;;;;12.55;7.78;;;;;;;;;;10369523;28;20037;-67
2022/02/01 14:05:45;;;;;;;11.23;7.43;;;;;;;;;;10368857;28;20021;-67
2022/02/01 14:26:42;;;;;;;9.88;6.78;;;;;;;;;;10368584;28;20053;-67
2022/02/01 14:37:09;;;;;;;8.50;6.20;;;;;;;;;;10368073;28;20466;-67
2022/02/01 14:47:29;;;;;;;12.52;6.30;;;;;;;;;;10367463;28;20056;-66
2022/02/01 14:52:30;;;;;;;15.17;6.53;;;;;;;;;;10367125;28;20029;-69
2022/02/01 15:13:08;;;;;;;7.78;5.47;;;;;;;;;;10367487;28;20320;-68
2022/02/01 15:18:08;;;;;;;11.50;5.77;;;;;;;;;;10364520;28;20034;-68
2022/02/01 15:23:09;;;;;;;12.25;5.75;;;;;;;;;;10370940;28;20950;-68
2022/02/01 15:28:11;;;;;;;7.67;5.03;;;;;;;;;;10375971;28;20026;-68
2022/02/01 15:33:13;;;;;;;11.15;5.53;;;;;;;;;;10375499;28;20439;-68
2022/02/01 15:38:16;;;;;;;9.85;5.25;;;;;;;;;;10372203;28;20026;-68
2022/02/01 15:59:16;;;;;;;8.15;4.80;;;;;;;;;;10374518;28;19913;-68
2022/02/01 16:04:19;;;;;;;7.10;4.88;;;;;;;;;;10374077;28;20063;-68
2022/02/01 16:09:29;;;;;;;9.90;4.82;;;;;;;;;;10374563;28;20057;-67
2022/02/01 16:14:29;;;;;;;8.02;5.43;;;;;;;;;;10374051;28;20056;-67
2022/02/01 16:19:30;;;;;;;7.63;4.63;;;;;;;;;;10373915;28;20466;-68
2022/02/01 16:24:35;;;;;;;8.33;4.57;;;;;;;;;;10374213;28;20510;-68
2022/02/01 16:29:36;;;;;;;7.45;5.20;;;;;;;;;;10373834;28;20057;-68
2022/02/01 16:34:36;;;;;;;6.35;4.40;;;;;;;;;;10373024;28;20088;-68
2022/02/01 16:39:37;;;;;;;7.20;4.60;;;;;;;;;;10373430;28;20026;-68
2022/02/01 16:44:37;;;;;;;13.53;5.00;;;;;;;;;;10373184;28;20080;-68
2022/02/01 16:49:38;;;;;;;10.83;5.17;;;;;;;;;;10373187;28;20438;-68
2022/02/01 16:54:53;;;;;;;7.60;4.63;;;;;;;;;;10372497;28;20034;-68
2022/02/01 16:59:57;;;;;;;8.55;5.18;;;;;;;;;;10372043;28;20034;-68
2022/02/01 17:04:57;;;;;;;7.57;4.55;;;;;;;;;;10371790;28;20024;-68
2022/02/01 17:09:59;;;;;;;9.70;4.25;;;;;;;;;;10371772;28;20049;-68
2022/02/01 17:15:18;;;;;;;7.88;4.50;;;;;;;;;;10371634;28;20053;-68
2022/02/01 17:25:19;;;;;;;7.40;4.72;;;;;;;;;;10371568;28;19913;-68
2022/02/01 17:30:19;;;;;;;9.35;5.07;;;;;;;;;;10371366;28;20397;-68
2022/02/01 17:35:20;;;;;;;8.70;5.00;;;;;;;;;;10370772;28;20160;-68
2022/02/01 17:40:21;;;;;;;6.30;4.55;;;;;;;;;;10371206;28;21033;-68
2022/02/01 17:45:22;;;;;;;9.50;4.50;;;;;;;;;;10369648;28;20442;-68
2022/02/01 17:50:28;;;;;;;7.90;4.75;;;;;;;;;;10371235;28;20133;-68
2022/02/01 17:55:28;;;;;;;8.23;4.70;;;;;;;;;;10369471;28;20033;-66
2022/02/01 18:00:29;;;;;;;7.82;4.47;;;;;;;;;;10370171;28;20026;-67
2022/02/01 18:05:29;;;;;;;7.82;4.85;;;;;;;;;;10369004;28;20026;-64
2022/02/01 18:10:29;;;;;;;7.63;5.00;;;;;;;;;;10367043;28;20168;-64
2022/02/01 18:15:32;;;;;;;6.72;4.50;;;;;;;;;;10366047;28;20447;-66
2022/02/01 18:20:33;;;;;;;9.10;4.68;;;;;;;;;;10367798;28;20029;-66
2022/02/01 18:25:33;;;;;;;10.85;4.90;;;;;;;;;;10367621;28;20022;-65
2022/02/01 18:30:39;;;;;;;11.83;5.00;;;;;;;;;;10368664;28;20026;-65
2022/02/01 18:35:43;;;;;;;11.68;4.25;;;;;;;;;;10368249;28;20955;-66
2022/02/01 18:40:46;;;;;;;12.68;4.40;;;;;;;;;;10366509;28;20441;-66
2022/02/01 18:45:49;;;;;;;10.38;4.78;;;;;;;;;;10368589;28;20037;-66
2022/02/01 18:51:04;;;;;;;8.75;4.07;;;;;;;;;;10367315;28;20036;-64
2022/02/01 19:07:27;;;;;;;9.15;4.28;;;;;;;;;;10367478;28;20386;-65
2022/02/01 19:12:03;;;;;;;10.60;4.72;;;;;;;;;;10366237;28;20041;-65
2022/02/01 19:17:06;;;;;;;7.78;4.88;;;;;;;;;;10366809;28;20611;-65
2022/02/01 19:22:07;;;;;;;12.80;5.57;;;;;;;;;;10366988;28;20026;-66
2022/02/01 19:27:09;;;;;;;7.18;4.40;;;;;;;;;;10366930;28;20037;-66
2022/02/01 19:32:12;;;;;;;8.32;5.25;;;;;;;;;;10365469;28;20113;-66
2022/02/01 19:37:15;;;;;;;9.80;4.63;;;;;;;;;;10366720;28;20394;-64
2022/02/01 19:42:17;;;;;;;7.15;4.55;;;;;;;;;;10366517;28;20486;-65
2022/02/01 19:52:24;;;;;;;10.77;5.22;;;;;;;;;;10364818;28;20029;-65
2022/02/01 19:57:29;;;;;;;9.07;5.07;;;;;;;;;;10365470;28;20029;-67
2022/02/01 20:02:30;;;;;;;8.82;4.50;;;;;;;;;;10365197;28;20029;-67
2022/02/01 20:07:31;;;;;;;10.90;4.85;;;;;;;;;;10362618;28;20038;-64
2022/02/01 20:12:33;;;;;;;8.20;4.85;;;;;;;;;;10373224;28;20045;-63
2022/02/01 20:17:33;;;;;;;8.52;4.93;;;;;;;;;;10372453;28;20080;-63
2022/02/01 20:22:35;;;;;;;9.73;4.47;;;;;;;;;;10372114;28;20469;-64
2022/02/01 20:27:36;;;;;;;9.77;4.88;;;;;;;;;;10371676;28;20511;-64
2022/02/01 20:32:40;;;;;;;8.10;4.80;;;;;;;;;;10371213;28;20110;-64
2022/02/01 20:37:41;;;;;;;9.90;4.82;;;;;;;;;;10370427;28;20030;-62
2022/02/01 20:42:42;;;;;;;7.95;5.20;;;;;;;;;;10373410;28;20022;-63
2022/02/01 20:47:43;;;;;;;9.20;4.85;;;;;;;;;;10372342;28;20029;-63
2022/02/01 20:52:47;;;;;;;6.88;5.05;;;;;;;;;;10370583;28;20413;-63
2022/02/01 20:57:47;;;;;;;9.20;4.70;;;;;;;;;;10372312;28;20421;-67
2022/02/01 21:02:51;;;;;;;7.43;4.70;;;;;;;;;;10372777;28;20030;-65
2022/02/01 21:07:55;;;;;;;18.92;5.13;;;;;;;;;;10371965;28;20080;-65
2022/02/01 21:12:56;;;;;;;17.67;6.60;;;;;;;;;;10370546;28;20564;-65
2022/02/01 21:17:56;;;;;;;9.50;5.27;;;;;;;;;;10372065;28;20026;-65
2022/02/01 21:22:56;;;;;;;15.77;6.03;;;;;;;;;;10370470;28;20447;-65
2022/02/01 21:27:57;;;;;;;7.95;5.03;;;;;;;;;;10365869;28;20970;-63
2022/02/01 21:32:57;;;;;;;13.50;5.50;;;;;;;;;;10365986;28;20410;-61
2022/02/01 21:37:59;;;;;;;18.92;4.90;;;;;;;;;;10365688;28;20084;-63
2022/02/01 21:43:00;;;;;;;13.65;4.70;;;;;;;;;;10370225;28;20350;-62
2022/02/01 21:48:00;;;;;;;15.50;5.43;;;;;;;;;;10370924;28;20037;-61
2022/02/01 21:53:00;;;;;;;9.17;4.70;;;;;;;;;;10370957;28;20336;-62
2022/02/01 21:58:01;;;;;;;10.03;5.03;;;;;;;;;;10370213;28;20470;-61
2022/02/01 22:03:02;;;;;;;9.00;4.97;;;;;;;;;;10369494;28;20486;-63
2022/02/01 22:08:02;;;;;;;15.10;6.00;;;;;;;;;;10370736;28;20433;-63
2022/02/01 22:13:03;;;;;;;10.52;5.05;;;;;;;;;;10370308;28;20746;-64
2022/02/01 22:18:03;;;;;;;9.80;5.30;;;;;;;;;;10370983;28;20430;-63
2022/02/01 22:23:05;;;;;;;9.27;5.43;;;;;;;;;;10370539;28;20041;-68
2022/02/01 22:28:05;;;;;;;12.02;5.45;;;;;;;;;;10368054;28;20056;-64
2022/02/01 22:33:10;;;;;;;10.32;5.80;;;;;;;;;;10369575;28;20041;-63
2022/02/01 22:38:11;;;;;;;8.05;5.47;;;;;;;;;;10368278;28;20040;-67
2022/02/01 22:43:12;;;;;;;10.20;5.85;;;;;;;;;;10365116;28;20056;-61
2022/02/01 22:48:13;;;;;;;11.70;5.97;;;;;;;;;;10368228;28;20072;-63
2022/02/01 22:53:14;;;;;;;11.77;6.57;;;;;;;;;;10368780;28;20029;-69
2022/02/01 22:58:14;;;;;;;12.38;7.00;;;;;;;;;;10368729;28;20029;-70
2022/02/01 23:03:21;;;;;;;14.63;6.33;;;;;;;;;;10368115;28;20026;-68
2022/02/01 23:19:06;;;;;;;10.35;6.50;;;;;;;;;;10367621;28;20038;-60
2022/02/01 23:24:06;;;;;;;14.23;6.57;;;;;;;;;;10367877;28;20113;-61
2022/02/01 23:29:07;;;;;;;9.27;7.10;;;;;;;;;;10366457;28;20982;-63
2022/02/01 23:34:21;;;;;;;10.23;6.68;;;;;;;;;;10367082;28;20030;-61
2022/02/01 23:39:56;;;;;;;12.13;6.95;;;;;;;;;;10368220;28;20065;-59
2022/02/01 23:50:10;;;;;;;11.43;6.60;;;;;;;;;;10371649;28;20152;-69
2022/02/01 23:55:11;;;;;;;8.95;6.53;;;;;;;;;;10374953;28;20120;-68
